createdAt,value
2018-07-04T00:01:39.963Z,17.30
2018-07-04T00:04:19.911Z,17.30
2018-07-04T00:06:59.736Z,17.20
2018-07-04T00:09:39.986Z,17.20
2018-07-04T00:12:20.260Z,17.10
2018-07-04T00:15:00.299Z,17.00
2018-07-04T00:17:41.096Z,16.90
2018-07-04T00:20:25.433Z,16.90
2018-07-04T00:23:05.423Z,16.90
2018-07-04T00:25:45.444Z,16.80
2018-07-04T00:28:25.201Z,16.80
2018-07-04T00:31:05.288Z,16.80
2018-07-04T00:33:45.424Z,16.70
2018-07-04T00:36:25.417Z,16.70
2018-07-04T00:39:06.396Z,16.60
2018-07-04T00:41:47.319Z,16.60
2018-07-04T00:44:27.410Z,16.50
2018-07-04T00:47:07.475Z,16.50
2018-07-04T00:49:47.421Z,16.50
2018-07-04T00:52:27.282Z,16.50
2018-07-04T00:55:07.274Z,16.40
2018-07-04T00:57:47.180Z,16.40
2018-07-04T01:00:27.234Z,16.30
2018-07-04T01:03:07.441Z,16.20
2018-07-04T01:05:47.489Z,16.30
2018-07-04T01:08:27.386Z,16.30
2018-07-04T01:11:07.654Z,16.20
2018-07-04T01:13:47.830Z,16.20
2018-07-04T01:16:27.890Z,16.20
2018-07-04T01:19:08.062Z,16.20
2018-07-04T01:21:48.208Z,16.20
2018-07-04T01:24:28.283Z,16.20
2018-07-04T01:27:08.357Z,16.20
2018-07-04T01:29:48.472Z,16.20
2018-07-04T01:32:28.360Z,16.10
2018-07-04T01:35:08.273Z,16.10
2018-07-04T01:37:48.097Z,16.00
2018-07-04T01:40:27.953Z,16.00
2018-07-04T01:43:07.615Z,16.00
2018-07-04T01:45:47.558Z,15.90
2018-07-04T01:48:27.631Z,15.90
2018-07-04T01:51:07.491Z,15.90
2018-07-04T01:53:47.477Z,15.90
2018-07-04T01:56:27.495Z,15.80
2018-07-04T01:59:07.577Z,15.90
2018-07-04T02:01:47.515Z,15.80
2018-07-04T02:04:27.265Z,15.80
2018-07-04T02:07:07.168Z,15.80
2018-07-04T02:09:47.143Z,15.70
2018-07-04T02:12:27.181Z,15.70
2018-07-04T02:15:06.896Z,15.70
2018-07-04T02:17:46.885Z,15.70
2018-07-04T02:20:27.073Z,15.60
2018-07-04T02:23:07.129Z,15.60
2018-07-04T02:25:46.980Z,15.60
2018-07-04T02:28:26.991Z,15.50
2018-07-04T02:31:11.327Z,15.50
2018-07-04T02:33:51.416Z,15.50
2018-07-04T02:36:31.437Z,15.50
2018-07-04T02:39:11.437Z,15.50
2018-07-04T02:41:51.487Z,15.40
2018-07-04T02:44:31.551Z,15.40
2018-07-04T02:47:16.947Z,15.30
2018-07-04T02:49:56.917Z,15.20
2018-07-04T02:52:36.754Z,15.30
2018-07-04T02:55:16.724Z,15.20
2018-07-04T02:57:56.670Z,15.20
2018-07-04T03:00:36.580Z,15.30
2018-07-04T03:03:16.613Z,15.30
2018-07-04T03:05:56.560Z,15.30
2018-07-04T03:08:36.978Z,15.40
2018-07-04T03:11:16.885Z,15.40
2018-07-04T03:13:56.692Z,15.40
2018-07-04T03:16:36.724Z,15.40
2018-07-04T03:19:16.721Z,15.50
2018-07-04T03:21:56.569Z,15.50
2018-07-04T03:24:36.619Z,15.60
2018-07-04T03:27:16.737Z,15.70
2018-07-04T03:29:56.795Z,15.70
2018-07-04T03:32:36.833Z,15.90
2018-07-04T03:35:16.761Z,15.90
2018-07-04T03:37:56.717Z,16.00
2018-07-04T03:40:36.850Z,16.00
2018-07-04T03:43:16.720Z,16.10
2018-07-04T03:45:56.599Z,16.20
2018-07-04T03:48:36.610Z,16.30
2018-07-04T03:51:16.720Z,16.20
2018-07-04T03:53:56.796Z,16.20
2018-07-04T03:56:36.662Z,16.20
2018-07-04T03:59:16.734Z,16.30
2018-07-04T04:01:56.589Z,16.40
2018-07-04T04:04:36.954Z,16.40
2018-07-04T04:07:16.800Z,16.50
2018-07-04T04:09:56.544Z,16.60
2018-07-04T04:12:36.492Z,16.70
2018-07-04T04:15:16.194Z,16.80
2018-07-04T04:17:56.822Z,17.00
2018-07-04T04:20:36.739Z,17.20
2018-07-04T04:23:16.888Z,17.30
2018-07-04T04:25:56.684Z,17.40
2018-07-04T04:28:37.050Z,17.50
2018-07-04T04:42:48.846Z,18.10
2018-07-04T04:45:28.718Z,18.20
2018-07-04T04:48:08.788Z,18.40
2018-07-04T04:50:48.912Z,18.70
2018-07-04T04:53:28.950Z,19.10
2018-07-04T04:56:09.149Z,19.50
2018-07-04T04:58:48.886Z,20.30
2018-07-04T05:01:29.006Z,21.10
2018-07-04T05:04:09.089Z,21.80
2018-07-04T05:06:49.118Z,22.00
2018-07-04T05:09:29.143Z,22.10
2018-07-04T05:12:08.974Z,22.40
2018-07-04T05:14:48.902Z,22.70
2018-07-04T05:17:28.798Z,23.00
2018-07-04T05:20:08.798Z,23.70
2018-07-04T05:22:48.758Z,24.40
2018-07-04T05:25:28.752Z,25.00
2018-07-04T05:28:08.872Z,25.30
2018-07-04T05:30:48.971Z,25.60
2018-07-04T05:33:28.755Z,25.80
2018-07-04T05:36:08.672Z,25.70
2018-07-04T05:38:48.662Z,25.40
2018-07-04T05:41:28.473Z,24.80
2018-07-04T05:44:08.460Z,24.60
2018-07-04T05:46:48.533Z,24.60
2018-07-04T05:49:28.509Z,24.80
2018-07-04T05:52:08.481Z,25.20
2018-07-04T05:54:48.549Z,25.80
2018-07-04T05:57:28.375Z,26.50
2018-07-04T06:00:08.007Z,27.60
2018-07-04T06:02:48.109Z,28.80
2018-07-04T06:05:28.251Z,29.30
2018-07-04T06:08:08.143Z,29.80
2018-07-04T06:10:48.137Z,30.40
2018-07-04T06:13:28.508Z,30.60
2018-07-04T06:16:08.691Z,31.60
2018-07-04T06:18:48.351Z,31.50
2018-07-04T06:21:29.071Z,32.00
2018-07-04T06:24:12.759Z,32.80
2018-07-04T06:26:52.578Z,33.00
2018-07-04T06:29:32.616Z,33.50
2018-07-04T06:32:12.845Z,33.80
2018-07-04T06:34:52.667Z,34.20
2018-07-04T06:37:32.551Z,33.60
2018-07-04T06:40:00.038Z,33.90
2018-07-04T06:42:27.579Z,33.20
2018-07-04T06:44:56.243Z,32.20
2018-07-04T06:47:24.039Z,31.60
2018-07-04T06:49:51.579Z,31.40
2018-07-04T06:52:19.496Z,31.20
2018-07-04T06:54:47.295Z,31.40
2018-07-04T06:57:14.819Z,31.50
2018-07-04T06:59:42.347Z,31.30
2018-07-04T07:02:11.952Z,31.60
2018-07-04T07:04:53.003Z,31.50
2018-07-04T07:07:33.171Z,31.20
2018-07-04T07:10:13.161Z,30.80
2018-07-04T07:12:53.207Z,30.50
2018-07-04T07:15:33.563Z,30.10
2018-07-04T07:18:14.672Z,30.00
2018-07-04T07:20:54.869Z,30.20
2018-07-04T07:23:34.927Z,29.90
2018-07-04T07:26:14.604Z,29.60
2018-07-04T07:28:54.582Z,29.40
2018-07-04T07:31:34.355Z,29.30
2018-07-04T07:34:14.570Z,29.10
2018-07-04T07:36:54.345Z,28.90
2018-07-04T07:39:34.165Z,28.80
2018-07-04T07:42:14.263Z,28.80
2018-07-04T07:44:54.025Z,28.70
2018-07-04T07:47:33.979Z,28.90
2018-07-04T07:50:14.022Z,28.90
2018-07-04T07:52:53.904Z,28.70
2018-07-04T07:55:33.737Z,28.70
2018-07-04T07:58:13.778Z,28.80
2018-07-04T08:00:53.596Z,28.70
2018-07-04T08:03:33.382Z,28.60
2018-07-04T08:06:13.265Z,28.50
2018-07-04T08:08:53.478Z,28.40
2018-07-04T08:11:33.561Z,28.10
2018-07-04T08:14:13.593Z,27.90
2018-07-04T08:16:53.598Z,27.90
2018-07-04T08:19:34.229Z,27.90
2018-07-04T08:22:14.331Z,27.90
2018-07-04T08:24:54.123Z,27.80
2018-07-04T08:27:34.049Z,27.70
2018-07-04T08:30:14.041Z,27.80
2018-07-04T08:32:54.017Z,27.80
2018-07-04T08:35:34.113Z,27.70
2018-07-04T08:38:14.098Z,27.50
2018-07-04T08:40:54.226Z,27.40
2018-07-04T08:43:34.035Z,27.30
2018-07-04T08:46:14.010Z,26.90
2018-07-04T08:48:54.013Z,27.00
2018-07-04T08:51:33.820Z,27.20
2018-07-04T08:54:14.956Z,27.50
2018-07-04T08:56:55.119Z,27.50
2018-07-04T08:59:34.943Z,27.50
2018-07-04T09:02:15.056Z,27.70
2018-07-04T09:07:29.375Z,28.00
2018-07-04T09:10:09.218Z,28.10
2018-07-04T09:12:49.041Z,28.20
2018-07-04T09:15:29.113Z,28.50
2018-07-04T09:18:08.921Z,28.70
2018-07-04T09:20:48.850Z,28.60
2018-07-04T09:23:28.802Z,28.60
2018-07-04T09:26:08.648Z,28.70
2018-07-04T09:28:48.932Z,28.70
2018-07-04T09:31:29.026Z,28.60
2018-07-04T09:34:09.121Z,28.50
2018-07-04T09:36:48.958Z,28.50
2018-07-04T09:39:29.445Z,28.80
2018-07-04T09:42:09.462Z,28.80
2018-07-04T09:44:49.942Z,29.10
2018-07-04T09:47:30.398Z,29.00
2018-07-04T09:50:10.304Z,28.80
2018-07-04T09:52:50.713Z,28.80
2018-07-04T09:55:30.369Z,28.90
2018-07-04T09:58:10.309Z,29.10
2018-07-04T10:00:55.579Z,29.40
2018-07-04T10:03:35.489Z,29.30
2018-07-04T10:06:15.402Z,29.40
2018-07-04T10:08:55.149Z,29.50
2018-07-04T10:11:35.190Z,29.50
2018-07-04T10:14:15.098Z,29.60
2018-07-04T10:16:55.196Z,29.60
2018-07-04T10:19:35.131Z,29.70
2018-07-04T10:22:15.091Z,29.80
2018-07-04T10:24:55.151Z,29.90
2018-07-04T10:27:35.070Z,29.90
2018-07-04T10:30:14.992Z,30.20
2018-07-04T10:32:54.982Z,30.10
2018-07-04T10:35:34.874Z,30.30
2018-07-04T10:38:14.928Z,30.60
2018-07-04T10:40:54.970Z,30.70
2018-07-04T10:43:34.833Z,31.00
2018-07-04T10:46:14.862Z,31.20
2018-07-04T10:48:54.845Z,31.10
2018-07-04T10:51:34.722Z,30.90
2018-07-04T10:54:14.646Z,31.00
2018-07-04T10:56:54.558Z,31.20
2018-07-04T10:59:34.432Z,31.20
2018-07-04T11:02:14.582Z,31.50
2018-07-04T11:04:54.979Z,31.80
2018-07-04T11:07:35.006Z,31.70
2018-07-04T11:10:14.906Z,31.50
2018-07-04T11:12:55.114Z,31.20
2018-07-04T11:15:35.158Z,31.00
2018-07-04T11:18:15.168Z,30.80
2018-07-04T11:23:29.334Z,30.40
2018-07-04T11:26:09.197Z,30.50
2018-07-04T11:28:49.097Z,30.90
2018-07-04T11:31:29.038Z,31.30
2018-07-04T11:34:09.108Z,31.70
2018-07-04T11:36:49.260Z,32.90
2018-07-04T11:39:29.135Z,33.80
2018-07-04T11:42:09.078Z,34.50
2018-07-04T11:44:49.206Z,35.20
2018-07-04T11:47:16.668Z,36.10
2018-07-04T11:49:44.230Z,36.90
2018-07-04T11:52:11.758Z,36.90
2018-07-04T11:54:39.350Z,37.10
2018-07-04T11:57:06.915Z,37.50
2018-07-04T11:59:34.427Z,37.90
2018-07-04T12:02:01.919Z,37.90
2018-07-04T12:04:41.858Z,37.50
2018-07-04T12:07:10.430Z,36.80
2018-07-04T12:09:39.090Z,36.80
2018-07-04T12:12:06.666Z,36.50
2018-07-04T12:14:34.372Z,36.50
2018-07-04T12:17:02.208Z,36.90
2018-07-04T12:19:29.702Z,37.80
2018-07-04T12:21:57.199Z,37.20
2018-07-04T12:24:24.755Z,37.10
2018-07-04T12:26:52.290Z,37.50
2018-07-04T12:29:19.764Z,37.50
2018-07-04T12:31:47.261Z,37.80
2018-07-04T12:34:14.845Z,38.30
2018-07-04T12:36:42.367Z,38.50
2018-07-04T12:39:09.888Z,39.10
2018-07-04T12:41:37.387Z,39.60
2018-07-04T12:44:04.920Z,39.80
2018-07-04T12:46:32.442Z,40.10
2018-07-04T12:49:00.876Z,40.20
2018-07-04T12:51:29.161Z,40.10
2018-07-04T12:54:01.974Z,40.50
2018-07-04T12:56:42.084Z,40.00
2018-07-04T13:01:56.714Z,39.20
2018-07-04T13:04:36.670Z,38.80
2018-07-04T13:07:16.826Z,38.50
2018-07-04T13:09:56.856Z,37.80
2018-07-04T13:12:36.938Z,37.20
2018-07-04T13:15:16.853Z,37.20
2018-07-04T13:17:56.746Z,37.20
2018-07-04T13:20:36.540Z,37.20
2018-07-04T13:23:16.288Z,36.80
2018-07-04T13:25:56.264Z,36.40
2018-07-04T13:28:36.289Z,36.30
2018-07-04T13:31:16.140Z,36.50
2018-07-04T13:33:56.179Z,36.60
2018-07-04T13:36:36.307Z,37.20
2018-07-04T13:39:16.358Z,37.60
2018-07-04T13:44:30.321Z,37.80
2018-07-04T13:47:10.369Z,37.50
2018-07-04T13:49:50.349Z,37.30
2018-07-04T13:52:30.128Z,37.20
2018-07-04T13:55:10.074Z,37.50
2018-07-04T13:57:49.962Z,37.70
2018-07-04T14:00:29.962Z,37.90
2018-07-04T14:03:10.049Z,37.50
2018-07-04T14:05:50.005Z,36.60
2018-07-04T14:08:30.082Z,35.90
2018-07-04T14:11:10.148Z,35.20
2018-07-04T14:13:50.306Z,35.30
2018-07-04T14:16:30.120Z,35.10
2018-07-04T14:19:10.057Z,35.00
2018-07-04T14:21:49.744Z,35.00
2018-07-04T14:24:29.736Z,35.10
2018-07-04T14:27:09.765Z,35.10
2018-07-04T14:29:49.736Z,34.30
2018-07-04T14:32:29.824Z,33.50
2018-07-04T14:35:10.056Z,32.80
2018-07-04T14:37:49.990Z,32.20
2018-07-04T14:40:29.725Z,31.50
2018-07-04T14:43:09.714Z,30.80
2018-07-04T14:45:49.652Z,30.40
2018-07-04T14:48:29.674Z,30.20
2018-07-04T14:51:09.547Z,29.90
2018-07-04T14:53:49.577Z,29.70
2018-07-04T14:56:29.602Z,29.60
2018-07-04T14:59:09.550Z,29.50
2018-07-04T15:01:49.370Z,29.40
2018-07-04T15:04:29.279Z,29.40
2018-07-04T15:07:09.122Z,29.30
2018-07-04T15:09:49.174Z,29.30
2018-07-04T15:12:29.126Z,29.40
2018-07-04T15:15:09.134Z,29.50
2018-07-04T15:17:49.072Z,29.80
2018-07-04T15:20:28.932Z,29.90
2018-07-04T15:23:08.836Z,30.10
2018-07-04T15:25:48.725Z,30.30
2018-07-04T15:28:28.669Z,30.80
2018-07-04T15:31:08.660Z,31.10
2018-07-04T15:33:48.463Z,31.30
2018-07-04T15:36:28.587Z,31.20
2018-07-04T15:39:08.648Z,31.00
2018-07-04T15:41:48.707Z,30.80
2018-07-04T15:44:28.564Z,30.70
2018-07-04T15:47:08.626Z,30.70
2018-07-04T15:49:51.252Z,30.50
2018-07-04T15:52:31.871Z,30.20
2018-07-04T15:55:11.627Z,29.90
2018-07-04T15:57:51.576Z,29.80
2018-07-04T16:00:31.558Z,29.60
2018-07-04T16:05:45.472Z,29.80
2018-07-04T16:08:25.466Z,29.80
2018-07-04T16:11:05.342Z,29.80
2018-07-04T16:13:45.467Z,29.90
2018-07-04T16:16:26.309Z,29.80
2018-07-04T16:19:06.309Z,29.70
2018-07-04T16:21:46.127Z,29.40
2018-07-04T16:24:26.176Z,29.20
2018-07-04T16:27:06.204Z,28.90
2018-07-04T16:29:46.094Z,28.70
2018-07-04T16:32:26.004Z,28.60
2018-07-04T16:35:05.947Z,28.50
2018-07-04T16:37:45.891Z,28.30
2018-07-04T16:40:25.736Z,28.20
2018-07-04T16:43:05.800Z,28.10
2018-07-04T16:45:45.585Z,28.00
2018-07-04T16:48:25.599Z,28.00
2018-07-04T16:51:05.459Z,28.00
2018-07-04T16:53:45.389Z,27.90
2018-07-04T16:56:25.388Z,27.70
2018-07-04T16:59:05.201Z,27.70
2018-07-04T17:01:45.197Z,27.70
2018-07-04T17:04:25.281Z,27.60
2018-07-04T17:07:05.205Z,27.50
2018-07-04T17:09:45.003Z,27.30
2018-07-04T17:12:25.062Z,27.20
2018-07-04T17:15:04.915Z,27.00
2018-07-04T17:17:44.911Z,26.80
2018-07-04T17:22:58.661Z,26.60
2018-07-04T17:25:38.523Z,26.50
2018-07-04T17:28:18.565Z,26.50
2018-07-04T17:30:58.450Z,26.40
2018-07-04T17:33:38.315Z,26.40
2018-07-04T17:36:18.336Z,26.40
2018-07-04T17:38:58.719Z,26.40
2018-07-04T17:41:38.555Z,26.40
2018-07-04T17:44:18.754Z,26.40
2018-07-04T17:46:58.761Z,26.30
2018-07-04T17:49:38.890Z,26.20
2018-07-04T17:52:18.759Z,26.20
2018-07-04T17:54:58.780Z,26.10
2018-07-04T18:00:12.439Z,26.10
2018-07-04T18:02:52.583Z,26.10
2018-07-04T18:05:32.645Z,26.10
2018-07-04T18:08:12.954Z,26.00
2018-07-04T18:10:53.134Z,26.00
2018-07-04T18:13:33.504Z,25.90
2018-07-04T18:16:13.383Z,25.80
2018-07-04T18:18:53.395Z,25.70
2018-07-04T18:21:33.292Z,25.50
2018-07-04T18:24:13.249Z,25.40
2018-07-04T18:26:53.437Z,25.30
2018-07-04T18:29:33.315Z,25.20
2018-07-04T18:32:13.345Z,25.20
2018-07-04T18:34:53.131Z,25.10
2018-07-04T18:37:33.635Z,25.00
2018-07-04T18:40:13.687Z,25.00
2018-07-04T18:42:53.583Z,24.90
2018-07-04T18:45:33.633Z,24.80
2018-07-04T18:48:13.659Z,24.80
2018-07-04T18:50:53.601Z,24.70
2018-07-04T18:53:33.498Z,24.70
2018-07-04T18:56:37.371Z,24.60
2018-07-04T18:59:17.323Z,24.50
2018-07-04T19:01:57.166Z,24.50
2018-07-04T19:04:37.171Z,24.40
2018-07-04T19:07:17.137Z,24.30
2018-07-04T19:09:57.211Z,24.20
2018-07-04T19:12:37.573Z,24.10
2018-07-04T19:15:17.442Z,24.00
2018-07-04T19:17:57.265Z,23.90
2018-07-04T19:20:37.095Z,23.80
2018-07-04T19:23:17.193Z,23.80
2018-07-04T19:25:57.183Z,23.70
2018-07-04T19:28:37.099Z,23.60
2018-07-04T19:31:17.349Z,23.30
2018-07-04T19:33:57.261Z,22.90
2018-07-04T19:36:37.061Z,22.60
2018-07-04T19:39:16.999Z,22.30
2018-07-04T19:41:56.907Z,22.10
2018-07-04T19:44:43.511Z,22.00
2018-07-04T19:47:28.184Z,21.70
2018-07-04T19:50:08.289Z,21.60
2018-07-04T19:52:48.356Z,21.50
2018-07-04T19:55:29.188Z,21.40
2018-07-04T19:58:09.462Z,21.30
2018-07-04T20:00:49.415Z,21.20
2018-07-04T20:03:29.315Z,21.10
2018-07-04T20:06:09.285Z,21.10
2018-07-04T20:08:49.150Z,21.00
2018-07-04T20:11:29.115Z,20.90
2018-07-04T20:14:09.111Z,20.90
2018-07-04T20:16:49.261Z,20.90
2018-07-04T20:19:29.042Z,20.90
2018-07-04T20:22:08.952Z,20.90
2018-07-04T20:24:48.947Z,20.90
2018-07-04T20:27:28.843Z,20.90
2018-07-04T20:30:08.753Z,20.90
2018-07-04T20:32:48.965Z,20.90
2018-07-04T20:35:28.890Z,20.90
2018-07-04T20:38:08.816Z,21.00
2018-07-04T20:40:49.027Z,21.00
2018-07-04T20:43:28.946Z,21.10
2018-07-04T20:46:08.828Z,21.20
2018-07-04T20:48:48.865Z,21.20
2018-07-04T20:51:29.055Z,21.20
2018-07-04T20:54:08.925Z,21.20
2018-07-04T20:56:48.891Z,21.20
2018-07-04T20:59:28.959Z,21.20
2018-07-04T21:02:11.075Z,21.20
2018-07-04T21:04:51.089Z,21.20
2018-07-04T21:07:31.135Z,21.20
2018-07-04T21:10:11.231Z,21.20
2018-07-04T21:12:51.263Z,21.20
2018-07-04T21:15:31.199Z,21.10
2018-07-04T21:18:10.983Z,21.10
2018-07-04T21:20:50.832Z,21.10
2018-07-04T21:23:30.709Z,21.10
2018-07-04T21:26:10.665Z,21.10
2018-07-04T21:28:50.601Z,21.10
2018-07-04T21:31:30.839Z,21.10
2018-07-04T21:34:10.748Z,21.00
2018-07-04T21:36:50.735Z,21.00
2018-07-04T21:39:30.858Z,21.00
2018-07-04T21:42:10.777Z,20.90
2018-07-04T21:47:26.951Z,20.90
2018-07-04T21:50:06.843Z,20.90
2018-07-04T21:52:46.906Z,20.80
2018-07-04T21:55:26.790Z,20.80
2018-07-04T21:58:06.763Z,20.70
2018-07-04T22:00:46.644Z,20.70
2018-07-04T22:03:26.568Z,20.60
2018-07-04T22:08:40.768Z,20.60
2018-07-04T22:11:20.648Z,20.50
2018-07-04T22:14:00.833Z,20.50
2018-07-04T22:16:40.957Z,20.40
2018-07-04T22:19:20.999Z,20.40
2018-07-04T22:22:00.782Z,20.30
2018-07-04T22:24:40.665Z,20.30
2018-07-04T22:29:54.560Z,20.10
2018-07-04T22:32:34.516Z,20.10
2018-07-04T22:35:14.707Z,20.10
2018-07-04T22:37:56.021Z,20.00
2018-07-04T22:40:35.978Z,20.00
2018-07-04T22:43:15.943Z,20.00
2018-07-04T22:45:55.742Z,19.90
2018-07-04T22:48:35.767Z,19.90
2018-07-04T22:51:15.705Z,19.80
2018-07-04T22:53:55.653Z,19.70
2018-07-04T22:56:35.529Z,19.60
2018-07-04T22:59:15.448Z,19.60
2018-07-04T23:01:59.097Z,19.50
2018-07-04T23:04:39.472Z,19.50
2018-07-04T23:07:19.407Z,19.40
2018-07-04T23:09:59.342Z,19.40
2018-07-04T23:12:39.340Z,19.30
2018-07-04T23:15:19.162Z,19.30
2018-07-04T23:17:59.525Z,19.20
2018-07-04T23:20:39.735Z,19.10
2018-07-04T23:23:19.563Z,19.10
2018-07-04T23:25:59.619Z,19.00
2018-07-04T23:28:43.603Z,19.00
2018-07-04T23:31:23.477Z,19.00
2018-07-04T23:34:03.688Z,18.90
2018-07-04T23:36:43.724Z,18.90
2018-07-04T23:39:23.556Z,18.80
2018-07-04T23:42:06.896Z,18.80
2018-07-04T23:44:46.958Z,18.80
2018-07-04T23:47:26.964Z,18.80
2018-07-04T23:50:06.843Z,18.80
2018-07-04T23:52:46.945Z,18.80
2018-07-04T23:55:26.725Z,18.70
2018-07-04T23:58:06.976Z,18.70
